sensor_id;sensor_type;location;lat;lon;timestamp;temperature;humidity
19174;DHT22;9719;49.322;8.536;2023-01-10T00:04:06;7.60;99.90
19174;DHT22;9719;49.322;8.536;2023-01-10T00:09:09;7.60;99.90
19174;DHT22;9719;49.322;8.536;2023-01-10T00:14:14;7.60;99.90
19174;DHT22;9719;49.322;8.536;2023-01-10T00:19:16;7.60;99.90
19174;DHT22;9719;49.322;8.536;2023-01-10T00:24:17;7.60;99.90
19174;DHT22;9719;49.322;8.536;2023-01-10T00:29:24;7.60;99.90
19174;DHT22;9719;49.322;8.536;2023-01-10T00:34:27;7.50;99.90
19174;DHT22;9719;49.322;8.536;2023-01-10T00:39:30;7.50;99.90
19174;DHT22;9719;49.322;8.536;2023-01-10T00:44:34;7.50;99.90
19174;DHT22;9719;49.322;8.536;2023-01-10T00:49:35;7.50;99.90
19174;DHT22;9719;49.322;8.536;2023-01-10T00:54:37;7.50;99.90
19174;DHT22;9719;49.322;8.536;2023-01-10T00:59:40;7.50;99.90
19174;DHT22;9719;49.322;8.536;2023-01-10T01:04:42;7.50;99.90
19174;DHT22;9719;49.322;8.536;2023-01-10T01:09:44;7.50;99.90
19174;DHT22;9719;49.322;8.536;2023-01-10T01:15:06;7.50;99.90
19174;DHT22;9719;49.322;8.536;2023-01-10T01:20:09;7.50;99.90
19174;DHT22;9719;49.322;8.536;2023-01-10T01:25:11;7.50;99.90
19174;DHT22;9719;49.322;8.536;2023-01-10T01:30:15;7.50;99.90
19174;DHT22;9719;49.322;8.536;2023-01-10T01:35:17;7.50;99.90
19174;DHT22;9719;49.322;8.536;2023-01-10T01:40:20;7.60;99.90
19174;DHT22;9719;49.322;8.536;2023-01-10T01:45:36;7.60;99.90
19174;DHT22;9719;49.322;8.536;2023-01-10T01:50:41;7.70;99.90
19174;DHT22;9719;49.322;8.536;2023-01-10T01:55:45;7.70;99.90
19174;DHT22;9719;49.322;8.536;2023-01-10T02:00:49;7.70;99.90
19174;DHT22;9719;49.322;8.536;2023-01-10T02:05:51;7.70;99.90
19174;DHT22;9719;49.322;8.536;2023-01-10T02:10:58;7.70;99.90
19174;DHT22;9719;49.322;8.536;2023-01-10T02:16:04;7.70;99.90
19174;DHT22;9719;49.322;8.536;2023-01-10T02:21:37;7.70;99.90
19174;DHT22;9719;49.322;8.536;2023-01-10T02:26:51;7.70;99.90
19174;DHT22;9719;49.322;8.536;2023-01-10T02:32:10;7.70;99.90
19174;DHT22;9719;49.322;8.536;2023-01-10T02:37:18;7.60;99.90
19174;DHT22;9719;49.322;8.536;2023-01-10T02:42:26;7.60;99.90
19174;DHT22;9719;49.322;8.536;2023-01-10T02:47:35;7.60;99.90
19174;DHT22;9719;49.322;8.536;2023-01-10T02:52:37;7.60;99.90
19174;DHT22;9719;49.322;8.536;2023-01-10T02:57:47;7.50;99.90
19174;DHT22;9719;49.322;8.536;2023-01-10T03:03:01;7.50;99.90
19174;DHT22;9719;49.322;8.536;2023-01-10T03:08:12;7.40;99.90
19174;DHT22;9719;49.322;8.536;2023-01-10T03:13:20;7.30;99.90
19174;DHT22;9719;49.322;8.536;2023-01-10T03:18:31;7.30;99.90
19174;DHT22;9719;49.322;8.536;2023-01-10T03:23:34;7.30;99.90
19174;DHT22;9719;49.322;8.536;2023-01-10T03:28:40;7.20;99.90
19174;DHT22;9719;49.322;8.536;2023-01-10T03:33:46;7.20;99.90
19174;DHT22;9719;49.322;8.536;2023-01-10T03:38:51;7.30;99.90
19174;DHT22;9719;49.322;8.536;2023-01-10T03:43:58;7.20;99.90
19174;DHT22;9719;49.322;8.536;2023-01-10T03:49:23;7.10;99.90
19174;DHT22;9719;49.322;8.536;2023-01-10T03:54:27;7.00;99.90
19174;DHT22;9719;49.322;8.536;2023-01-10T03:59:29;7.10;99.90
19174;DHT22;9719;49.322;8.536;2023-01-10T04:04:32;7.20;99.90
19174;DHT22;9719;49.322;8.536;2023-01-10T04:09:34;7.20;99.90
19174;DHT22;9719;49.322;8.536;2023-01-10T04:14:36;7.20;99.90
19174;DHT22;9719;49.322;8.536;2023-01-10T04:19:39;7.30;99.90
19174;DHT22;9719;49.322;8.536;2023-01-10T04:24:41;7.30;99.90
19174;DHT22;9719;49.322;8.536;2023-01-10T04:29:43;7.30;99.90
19174;DHT22;9719;49.322;8.536;2023-01-10T04:34:46;7.40;99.90
19174;DHT22;9719;49.322;8.536;2023-01-10T04:39:48;7.30;99.90
19174;DHT22;9719;49.322;8.536;2023-01-10T04:44:50;7.30;99.90
19174;DHT22;9719;49.322;8.536;2023-01-10T04:49:53;7.30;99.90
19174;DHT22;9719;49.322;8.536;2023-01-10T04:54:55;7.30;99.90
19174;DHT22;9719;49.322;8.536;2023-01-10T04:59:57;7.40;99.90
19174;DHT22;9719;49.322;8.536;2023-01-10T05:05:00;7.40;99.90
19174;DHT22;9719;49.322;8.536;2023-01-10T05:10:02;7.40;99.90
19174;DHT22;9719;49.322;8.536;2023-01-10T05:15:05;7.50;99.90
19174;DHT22;9719;49.322;8.536;2023-01-10T05:20:10;7.40;99.90
19174;DHT22;9719;49.322;8.536;2023-01-10T05:25:13;7.30;99.90
19174;DHT22;9719;49.322;8.536;2023-01-10T05:30:15;7.30;99.90
19174;DHT22;9719;49.322;8.536;2023-01-10T05:35:18;7.30;99.90
19174;DHT22;9719;49.322;8.536;2023-01-10T05:40:20;7.40;99.90
19174;DHT22;9719;49.322;8.536;2023-01-10T05:45:21;7.40;99.90
19174;DHT22;9719;49.322;8.536;2023-01-10T05:50:25;7.50;99.90
19174;DHT22;9719;49.322;8.536;2023-01-10T05:55:26;7.50;99.90
19174;DHT22;9719;49.322;8.536;2023-01-10T06:00:28;7.50;99.90
19174;DHT22;9719;49.322;8.536;2023-01-10T06:05:31;7.50;99.90
19174;DHT22;9719;49.322;8.536;2023-01-10T06:10:33;7.50;99.90
19174;DHT22;9719;49.322;8.536;2023-01-10T06:15:35;7.50;99.90
19174;DHT22;9719;49.322;8.536;2023-01-10T06:20:38;7.50;99.90
19174;DHT22;9719;49.322;8.536;2023-01-10T06:25:40;7.50;99.90
19174;DHT22;9719;49.322;8.536;2023-01-10T06:30:42;7.50;99.90
19174;DHT22;9719;49.322;8.536;2023-01-10T06:35:45;7.50;99.90
19174;DHT22;9719;49.322;8.536;2023-01-10T06:40:47;7.60;99.90
19174;DHT22;9719;49.322;8.536;2023-01-10T06:45:49;7.60;99.90
19174;DHT22;9719;49.322;8.536;2023-01-10T06:50:52;7.60;99.90
19174;DHT22;9719;49.322;8.536;2023-01-10T06:55:54;7.60;99.90
19174;DHT22;9719;49.322;8.536;2023-01-10T07:00:56;7.50;99.90
19174;DHT22;9719;49.322;8.536;2023-01-10T07:06:01;7.50;99.90
19174;DHT22;9719;49.322;8.536;2023-01-10T07:11:05;7.60;99.90
19174;DHT22;9719;49.322;8.536;2023-01-10T07:16:09;7.50;99.90
19174;DHT22;9719;49.322;8.536;2023-01-10T07:21:13;7.50;99.90
19174;DHT22;9719;49.322;8.536;2023-01-10T07:26:16;7.50;99.90
19174;DHT22;9719;49.322;8.536;2023-01-10T07:31:19;7.50;99.90
19174;DHT22;9719;49.322;8.536;2023-01-10T07:36:24;7.50;99.90
19174;DHT22;9719;49.322;8.536;2023-01-10T07:41:26;7.40;99.90
19174;DHT22;9719;49.322;8.536;2023-01-10T07:46:27;7.50;99.90
19174;DHT22;9719;49.322;8.536;2023-01-10T07:51:31;7.50;99.90
19174;DHT22;9719;49.322;8.536;2023-01-10T07:56:32;7.60;99.90
19174;DHT22;9719;49.322;8.536;2023-01-10T08:01:34;7.60;99.90
19174;DHT22;9719;49.322;8.536;2023-01-10T08:06:37;7.70;99.90
19174;DHT22;9719;49.322;8.536;2023-01-10T08:11:39;7.70;99.90
19174;DHT22;9719;49.322;8.536;2023-01-10T08:16:42;7.80;99.90
19174;DHT22;9719;49.322;8.536;2023-01-10T08:21:45;7.80;99.90
19174;DHT22;9719;49.322;8.536;2023-01-10T08:26:46;8.00;99.90
19174;DHT22;9719;49.322;8.536;2023-01-10T08:31:48;8.10;99.90
19174;DHT22;9719;49.322;8.536;2023-01-10T08:36:52;8.10;99.90
19174;DHT22;9719;49.322;8.536;2023-01-10T08:41:55;8.20;99.90
19174;DHT22;9719;49.322;8.536;2023-01-10T08:46:57;8.30;99.90
19174;DHT22;9719;49.322;8.536;2023-01-10T08:52:01;8.50;99.90
19174;DHT22;9719;49.322;8.536;2023-01-10T08:57:03;8.60;99.90
19174;DHT22;9719;49.322;8.536;2023-01-10T09:02:05;8.60;99.90
19174;DHT22;9719;49.322;8.536;2023-01-10T09:07:13;8.70;99.90
19174;DHT22;9719;49.322;8.536;2023-01-10T09:12:15;8.80;99.90
19174;DHT22;9719;49.322;8.536;2023-01-10T09:17:35;8.80;99.90
19174;DHT22;9719;49.322;8.536;2023-01-10T09:22:38;8.90;99.90
19174;DHT22;9719;49.322;8.536;2023-01-10T09:27:39;9.00;99.90
19174;DHT22;9719;49.322;8.536;2023-01-10T09:32:41;8.90;99.90
19174;DHT22;9719;49.322;8.536;2023-01-10T09:37:44;9.10;99.90
19174;DHT22;9719;49.322;8.536;2023-01-10T09:42:56;9.00;99.90
19174;DHT22;9719;49.322;8.536;2023-01-10T09:48:05;9.30;99.90
19174;DHT22;9719;49.322;8.536;2023-01-10T09:53:11;9.40;99.90
19174;DHT22;9719;49.322;8.536;2023-01-10T09:58:16;9.50;99.90
19174;DHT22;9719;49.322;8.536;2023-01-10T10:03:24;9.50;99.90
19174;DHT22;9719;49.322;8.536;2023-01-10T10:08:30;9.40;99.90
19174;DHT22;9719;49.322;8.536;2023-01-10T10:13:41;9.40;99.90
19174;DHT22;9719;49.322;8.536;2023-01-10T10:18:56;9.30;99.90
19174;DHT22;9719;49.322;8.536;2023-01-10T10:24:23;9.40;99.90
19174;DHT22;9719;49.322;8.536;2023-01-10T10:35:24;9.60;99.90
19174;DHT22;9719;49.322;8.536;2023-01-10T10:40:31;9.80;99.90
19174;DHT22;9719;49.322;8.536;2023-01-10T10:45:37;9.90;99.90
19174;DHT22;9719;49.322;8.536;2023-01-10T10:50:51;10.00;99.90
19174;DHT22;9719;49.322;8.536;2023-01-10T10:55:56;9.90;99.90
19174;DHT22;9719;49.322;8.536;2023-01-10T11:00:58;9.80;99.90
19174;DHT22;9719;49.322;8.536;2023-01-10T11:06:00;9.70;99.90
19174;DHT22;9719;49.322;8.536;2023-01-10T11:11:08;9.50;99.90
19174;DHT22;9719;49.322;8.536;2023-01-10T11:16:29;9.60;99.90
19174;DHT22;9719;49.322;8.536;2023-01-10T11:21:32;9.70;99.90
19174;DHT22;9719;49.322;8.536;2023-01-10T11:26:37;9.60;99.90
19174;DHT22;9719;49.322;8.536;2023-01-10T11:31:40;9.70;99.90
19174;DHT22;9719;49.322;8.536;2023-01-10T11:36:54;9.80;99.90
19174;DHT22;9719;49.322;8.536;2023-01-10T11:42:25;9.60;99.90
19174;DHT22;9719;49.322;8.536;2023-01-10T11:47:29;9.70;99.90
19174;DHT22;9719;49.322;8.536;2023-01-10T11:52:31;9.80;99.90
19174;DHT22;9719;49.322;8.536;2023-01-10T11:57:34;10.10;99.90
19174;DHT22;9719;49.322;8.536;2023-01-10T12:02:39;10.20;99.90
19174;DHT22;9719;49.322;8.536;2023-01-10T12:07:55;10.10;99.90
19174;DHT22;9719;49.322;8.536;2023-01-10T12:12:59;10.10;99.90
19174;DHT22;9719;49.322;8.536;2023-01-10T12:18:10;10.20;99.90
19174;DHT22;9719;49.322;8.536;2023-01-10T12:23:17;10.30;99.90
19174;DHT22;9719;49.322;8.536;2023-01-10T12:28:25;10.50;97.90
19174;DHT22;9719;49.322;8.536;2023-01-10T12:33:31;10.70;98.90
19174;DHT22;9719;49.322;8.536;2023-01-10T12:38:39;10.50;98.50
19174;DHT22;9719;49.322;8.536;2023-01-10T12:44:03;11.50;95.20
19174;DHT22;9719;49.322;8.536;2023-01-10T12:49:18;12.40;92.20
19174;DHT22;9719;49.322;8.536;2023-01-10T12:54:22;12.40;91.30
19174;DHT22;9719;49.322;8.536;2023-01-10T12:59:29;12.30;89.90
19174;DHT22;9719;49.322;8.536;2023-01-10T13:04:37;12.90;89.10
19174;DHT22;9719;49.322;8.536;2023-01-10T13:09:41;13.00;88.40
19174;DHT22;9719;49.322;8.536;2023-01-10T13:14:49;13.50;82.00
19174;DHT22;9719;49.322;8.536;2023-01-10T13:20:34;14.00;76.10
19174;DHT22;9719;49.322;8.536;2023-01-10T13:25:37;13.50;78.00
19174;DHT22;9719;49.322;8.536;2023-01-10T13:30:40;13.10;81.20
19174;DHT22;9719;49.322;8.536;2023-01-10T13:35:43;12.80;83.00
19174;DHT22;9719;49.322;8.536;2023-01-10T13:40:59;13.00;86.30
19174;DHT22;9719;49.322;8.536;2023-01-10T13:46:34;13.30;80.90
19174;DHT22;9719;49.322;8.536;2023-01-10T13:51:37;14.10;82.20
19174;DHT22;9719;49.322;8.536;2023-01-10T13:56:40;14.70;79.50
19174;DHT22;9719;49.322;8.536;2023-01-10T14:01:49;14.70;79.50
19174;DHT22;9719;49.322;8.536;2023-01-10T14:07:18;14.00;75.70
19174;DHT22;9719;49.322;8.536;2023-01-10T14:12:28;13.00;76.60
19174;DHT22;9719;49.322;8.536;2023-01-10T14:17:33;12.40;80.00
19174;DHT22;9719;49.322;8.536;2023-01-10T14:22:36;11.90;86.90
19174;DHT22;9719;49.322;8.536;2023-01-10T14:27:42;11.60;90.00
19174;DHT22;9719;49.322;8.536;2023-01-10T14:32:49;11.20;90.30
19174;DHT22;9719;49.322;8.536;2023-01-10T14:37:54;10.90;92.60
19174;DHT22;9719;49.322;8.536;2023-01-10T14:42:59;10.70;92.60
19174;DHT22;9719;49.322;8.536;2023-01-10T14:48:31;10.50;95.80
19174;DHT22;9719;49.322;8.536;2023-01-10T14:53:33;10.30;94.50
19174;DHT22;9719;49.322;8.536;2023-01-10T14:58:34;10.10;98.00
19174;DHT22;9719;49.322;8.536;2023-01-10T15:03:44;10.00;98.60
19174;DHT22;9719;49.322;8.536;2023-01-10T15:08:55;10.00;96.70
19174;DHT22;9719;49.322;8.536;2023-01-10T15:14:01;9.90;94.60
19174;DHT22;9719;49.322;8.536;2023-01-10T15:19:08;9.70;98.00
19174;DHT22;9719;49.322;8.536;2023-01-10T15:24:32;9.60;96.60
19174;DHT22;9719;49.322;8.536;2023-01-10T15:29:34;9.40;96.70
19174;DHT22;9719;49.322;8.536;2023-01-10T15:34:38;9.30;98.40
19174;DHT22;9719;49.322;8.536;2023-01-10T15:39:45;9.10;97.20
19174;DHT22;9719;49.322;8.536;2023-01-10T15:44:48;9.00;95.10
19174;DHT22;9719;49.322;8.536;2023-01-10T15:49:54;8.80;99.70
19174;DHT22;9719;49.322;8.536;2023-01-10T15:54:56;8.70;99.90
19174;DHT22;9719;49.322;8.536;2023-01-10T15:59:59;8.60;99.90
19174;DHT22;9719;49.322;8.536;2023-01-10T16:05:07;8.60;99.90
19174;DHT22;9719;49.322;8.536;2023-01-10T16:10:17;8.50;99.90
19174;DHT22;9719;49.322;8.536;2023-01-10T16:15:21;8.40;99.90
19174;DHT22;9719;49.322;8.536;2023-01-10T16:20:33;8.30;99.90
19174;DHT22;9719;49.322;8.536;2023-01-10T16:25:37;8.20;99.90
19174;DHT22;9719;49.322;8.536;2023-01-10T16:30:42;8.20;99.90
19174;DHT22;9719;49.322;8.536;2023-01-10T16:36:10;8.10;99.90
19174;DHT22;9719;49.322;8.536;2023-01-10T16:41:27;8.10;99.90
19174;DHT22;9719;49.322;8.536;2023-01-10T16:46:56;8.00;99.90
19174;DHT22;9719;49.322;8.536;2023-01-10T16:52:15;8.00;99.90
19174;DHT22;9719;49.322;8.536;2023-01-10T16:57:20;7.90;99.90
19174;DHT22;9719;49.322;8.536;2023-01-10T17:02:24;7.90;99.90
19174;DHT22;9719;49.322;8.536;2023-01-10T17:07:32;8.00;99.90
19174;DHT22;9719;49.322;8.536;2023-01-10T17:12:41;8.00;99.90
19174;DHT22;9719;49.322;8.536;2023-01-10T17:17:47;8.00;99.90
19174;DHT22;9719;49.322;8.536;2023-01-10T17:22:51;8.10;99.90
19174;DHT22;9719;49.322;8.536;2023-01-10T17:27:53;8.10;99.90
19174;DHT22;9719;49.322;8.536;2023-01-10T17:32:55;8.20;99.90
19174;DHT22;9719;49.322;8.536;2023-01-10T17:37:59;8.20;99.90
19174;DHT22;9719;49.322;8.536;2023-01-10T17:43:01;8.30;99.90
19174;DHT22;9719;49.322;8.536;2023-01-10T17:48:03;8.30;99.90
19174;DHT22;9719;49.322;8.536;2023-01-10T17:53:06;8.30;99.90
19174;DHT22;9719;49.322;8.536;2023-01-10T17:58:08;8.40;99.90
19174;DHT22;9719;49.322;8.536;2023-01-10T18:03:10;8.40;99.90
19174;DHT22;9719;49.322;8.536;2023-01-10T18:08:13;8.40;99.90
19174;DHT22;9719;49.322;8.536;2023-01-10T18:13:20;8.40;99.90
19174;DHT22;9719;49.322;8.536;2023-01-10T18:18:22;8.50;99.90
19174;DHT22;9719;49.322;8.536;2023-01-10T18:23:27;8.50;99.90
19174;DHT22;9719;49.322;8.536;2023-01-10T18:28:33;8.50;99.90
19174;DHT22;9719;49.322;8.536;2023-01-10T18:33:36;8.60;99.90
19174;DHT22;9719;49.322;8.536;2023-01-10T18:38:39;8.60;99.90
19174;DHT22;9719;49.322;8.536;2023-01-10T18:43:41;8.60;99.90
19174;DHT22;9719;49.322;8.536;2023-01-10T18:48:46;8.60;99.90
19174;DHT22;9719;49.322;8.536;2023-01-10T18:53:50;8.60;99.90
19174;DHT22;9719;49.322;8.536;2023-01-10T18:58:54;8.60;99.90
19174;DHT22;9719;49.322;8.536;2023-01-10T19:03:58;8.60;99.90
19174;DHT22;9719;49.322;8.536;2023-01-10T19:09:01;8.70;99.90
19174;DHT22;9719;49.322;8.536;2023-01-10T19:14:03;8.70;99.90
19174;DHT22;9719;49.322;8.536;2023-01-10T19:19:06;8.70;99.90
19174;DHT22;9719;49.322;8.536;2023-01-10T19:24:19;8.70;99.90
19174;DHT22;9719;49.322;8.536;2023-01-10T19:29:22;8.70;99.90
19174;DHT22;9719;49.322;8.536;2023-01-10T19:34:24;8.70;99.90
19174;DHT22;9719;49.322;8.536;2023-01-10T19:39:27;8.60;99.90
19174;DHT22;9719;49.322;8.536;2023-01-10T19:44:29;8.60;99.90
19174;DHT22;9719;49.322;8.536;2023-01-10T19:49:31;8.60;99.90
19174;DHT22;9719;49.322;8.536;2023-01-10T19:54:36;8.60;99.90
19174;DHT22;9719;49.322;8.536;2023-01-10T19:59:38;8.60;99.90
19174;DHT22;9719;49.322;8.536;2023-01-10T20:04:41;8.60;99.90
19174;DHT22;9719;49.322;8.536;2023-01-10T20:09:44;8.60;99.90
19174;DHT22;9719;49.322;8.536;2023-01-10T20:14:47;8.60;99.90
19174;DHT22;9719;49.322;8.536;2023-01-10T20:19:51;8.60;99.90
19174;DHT22;9719;49.322;8.536;2023-01-10T20:24:56;8.60;99.90
19174;DHT22;9719;49.322;8.536;2023-01-10T20:29:57;8.60;99.90
19174;DHT22;9719;49.322;8.536;2023-01-10T20:34:59;8.60;99.90
19174;DHT22;9719;49.322;8.536;2023-01-10T20:40:03;8.60;99.90
19174;DHT22;9719;49.322;8.536;2023-01-10T20:45:06;8.60;99.90
19174;DHT22;9719;49.322;8.536;2023-01-10T20:50:09;8.50;99.90
19174;DHT22;9719;49.322;8.536;2023-01-10T20:55:12;8.50;99.90
19174;DHT22;9719;49.322;8.536;2023-01-10T21:00:16;8.60;99.90
19174;DHT22;9719;49.322;8.536;2023-01-10T21:05:18;8.60;99.90
19174;DHT22;9719;49.322;8.536;2023-01-10T21:10:21;8.70;99.90
19174;DHT22;9719;49.322;8.536;2023-01-10T21:15:23;8.70;99.90
19174;DHT22;9719;49.322;8.536;2023-01-10T21:20:25;8.80;99.90
19174;DHT22;9719;49.322;8.536;2023-01-10T21:25:29;8.70;99.90
19174;DHT22;9719;49.322;8.536;2023-01-10T21:30:32;8.80;99.90
19174;DHT22;9719;49.322;8.536;2023-01-10T21:35:34;8.80;99.10
19174;DHT22;9719;49.322;8.536;2023-01-10T21:40:37;8.90;98.90
19174;DHT22;9719;49.322;8.536;2023-01-10T21:45:39;8.90;99.00
19174;DHT22;9719;49.322;8.536;2023-01-10T21:50:47;8.80;99.70
19174;DHT22;9719;49.322;8.536;2023-01-10T21:55:51;8.90;98.60
19174;DHT22;9719;49.322;8.536;2023-01-10T22:00:55;8.80;99.60
19174;DHT22;9719;49.322;8.536;2023-01-10T22:06:00;8.80;99.50
19174;DHT22;9719;49.322;8.536;2023-01-10T22:11:03;8.80;99.90
19174;DHT22;9719;49.322;8.536;2023-01-10T22:16:05;8.80;99.70
19174;DHT22;9719;49.322;8.536;2023-01-10T22:21:09;8.90;99.40
19174;DHT22;9719;49.322;8.536;2023-01-10T22:26:18;8.90;98.60
19174;DHT22;9719;49.322;8.536;2023-01-10T22:31:20;9.00;98.00
19174;DHT22;9719;49.322;8.536;2023-01-10T22:36:22;9.00;97.90
19174;DHT22;9719;49.322;8.536;2023-01-10T22:41:25;9.00;97.30
19174;DHT22;9719;49.322;8.536;2023-01-10T22:46:28;9.10;96.10
19174;DHT22;9719;49.322;8.536;2023-01-10T22:51:30;9.20;95.50
19174;DHT22;9719;49.322;8.536;2023-01-10T22:56:36;9.20;95.80
19174;DHT22;9719;49.322;8.536;2023-01-10T23:01:38;9.20;95.60
19174;DHT22;9719;49.322;8.536;2023-01-10T23:06:40;9.30;95.60
19174;DHT22;9719;49.322;8.536;2023-01-10T23:11:43;9.40;95.50
19174;DHT22;9719;49.322;8.536;2023-01-10T23:16:45;9.30;95.40
19174;DHT22;9719;49.322;8.536;2023-01-10T23:21:47;9.40;96.20
19174;DHT22;9719;49.322;8.536;2023-01-10T23:26:52;9.50;96.90
19174;DHT22;9719;49.322;8.536;2023-01-10T23:31:53;9.50;96.50
19174;DHT22;9719;49.322;8.536;2023-01-10T23:36:56;9.50;96.60
19174;DHT22;9719;49.322;8.536;2023-01-10T23:41:59;9.50;96.80
19174;DHT22;9719;49.322;8.536;2023-01-10T23:47:01;9.50;96.00
19174;DHT22;9719;49.322;8.536;2023-01-10T23:52:03;9.50;96.10
19174;DHT22;9719;49.322;8.536;2023-01-10T23:57:06;9.60;96.20
